sensor_id;sensor_type;location;lat;lon;timestamp;pressure;altitude;pressure_sealevel;temperature;humidity
7474;BME280;3778;42.572;23.426;2022-09-30T00:02:14;72060.06;;;-146.70;89.29
7474;BME280;3778;42.572;23.426;2022-09-30T00:04:41;72047.63;;;-146.70;89.20
7474;BME280;3778;42.572;23.426;2022-09-30T00:07:07;72064.22;;;-146.70;88.98
7474;BME280;3778;42.572;23.426;2022-09-30T00:09:34;72084.94;;;-146.70;89.18
7474;BME280;3778;42.572;23.426;2022-09-30T00:12:01;72074.56;;;-146.70;89.29
7474;BME280;3778;42.572;23.426;2022-09-30T00:14:28;72084.94;;;-146.70;89.22
7474;BME280;3778;42.572;23.426;2022-09-30T00:16:56;72078.72;;;-146.70;89.06
7474;BME280;3778;42.572;23.426;2022-09-30T00:19:22;72080.78;;;-146.70;89.00
7474;BME280;3778;42.572;23.426;2022-09-30T00:21:49;72068.34;;;-146.70;89.02
7474;BME280;3778;42.572;23.426;2022-09-30T00:24:16;72068.34;;;-146.70;88.77
7474;BME280;3778;42.572;23.426;2022-09-30T00:26:42;72070.44;;;-146.70;88.52
7474;BME280;3778;42.572;23.426;2022-09-30T00:29:10;72080.78;;;-146.70;88.52
7474;BME280;3778;42.572;23.426;2022-09-30T00:31:37;72093.22;;;-146.70;88.63
7474;BME280;3778;42.572;23.426;2022-09-30T00:34:05;72093.22;;;-146.70;88.86
7474;BME280;3778;42.572;23.426;2022-09-30T00:36:33;72099.44;;;-146.70;89.14
7474;BME280;3778;42.572;23.426;2022-09-30T00:39:01;72103.59;;;-146.70;89.45
7474;BME280;3778;42.572;23.426;2022-09-30T00:41:29;72097.38;;;-146.70;89.43
7474;BME280;3778;42.572;23.426;2022-09-30T00:43:55;72099.44;;;-146.70;89.34
7474;BME280;3778;42.572;23.426;2022-09-30T00:46:29;72103.59;;;-146.70;89.47
7474;BME280;3778;42.572;23.426;2022-09-30T00:48:59;72097.38;;;-146.70;89.39
7474;BME280;3778;42.572;23.426;2022-09-30T00:51:34;72099.44;;;-146.70;89.36
7474;BME280;3778;42.572;23.426;2022-09-30T00:54:04;72105.66;;;-146.70;89.42
7474;BME280;3778;42.572;23.426;2022-09-30T00:56:36;72111.88;;;-146.70;89.57
7474;BME280;3778;42.572;23.426;2022-09-30T00:59:07;72105.66;;;-146.70;89.70
7474;BME280;3778;42.572;23.426;2022-09-30T01:01:39;72116.03;;;-146.70;89.82
7474;BME280;3778;42.572;23.426;2022-09-30T01:04:09;72116.03;;;-146.70;89.91
7474;BME280;3778;42.572;23.426;2022-09-30T01:06:39;72126.38;;;-146.70;89.82
7474;BME280;3778;42.572;23.426;2022-09-30T01:09:06;72116.03;;;-146.70;89.94
7474;BME280;3778;42.572;23.426;2022-09-30T01:11:32;72122.25;;;-146.70;89.91
7474;BME280;3778;42.572;23.426;2022-09-30T01:14:01;72118.09;;;-146.70;89.90
7474;BME280;3778;42.572;23.426;2022-09-30T01:16:44;72122.25;;;-146.70;89.82
7474;BME280;3778;42.572;23.426;2022-09-30T01:19:25;72120.16;;;-146.70;89.87
7474;BME280;3778;42.572;23.426;2022-09-30T01:22:07;72118.09;;;-146.70;89.97
7474;BME280;3778;42.572;23.426;2022-09-30T01:24:55;72113.94;;;-146.70;90.15
7474;BME280;3778;42.572;23.426;2022-09-30T01:27:49;72116.03;;;-146.70;90.15
7474;BME280;3778;42.572;23.426;2022-09-30T01:30:19;72116.03;;;-146.70;90.08
7474;BME280;3778;42.572;23.426;2022-09-30T01:33:10;72109.81;;;-146.70;90.00
7474;BME280;3778;42.572;23.426;2022-09-30T01:36:14;72105.66;;;-146.70;89.86
7474;BME280;3778;42.572;23.426;2022-09-30T01:38:47;72113.94;;;-146.70;89.64
7474;BME280;3778;42.572;23.426;2022-09-30T01:41:28;72113.94;;;-146.70;89.48
7474;BME280;3778;42.572;23.426;2022-09-30T01:44:07;72105.66;;;-146.70;89.28
7474;BME280;3778;42.572;23.426;2022-09-30T01:46:39;72116.03;;;-146.70;89.29
7474;BME280;3778;42.572;23.426;2022-09-30T01:49:14;72109.81;;;-146.70;89.26
7474;BME280;3778;42.572;23.426;2022-09-30T01:51:49;72130.53;;;-146.70;89.26
7474;BME280;3778;42.572;23.426;2022-09-30T01:54:22;72124.31;;;-146.70;89.40
7474;BME280;3778;42.572;23.426;2022-09-30T01:56:53;72122.25;;;-146.70;89.45
7474;BME280;3778;42.572;23.426;2022-09-30T01:59:24;72151.25;;;-146.70;89.72
7474;BME280;3778;42.572;23.426;2022-09-30T02:01:55;72147.09;;;-146.70;89.99
7474;BME280;3778;42.572;23.426;2022-09-30T02:04:30;72142.97;;;-146.70;90.03
7474;BME280;3778;42.572;23.426;2022-09-30T02:07:00;72157.47;;;-146.70;90.17
7474;BME280;3778;42.572;23.426;2022-09-30T02:09:31;72142.97;;;-146.70;90.24
7474;BME280;3778;42.572;23.426;2022-09-30T02:12:03;72134.69;;;-146.70;90.13
7474;BME280;3778;42.572;23.426;2022-09-30T02:14:36;72132.59;;;-146.70;89.91
7474;BME280;3778;42.572;23.426;2022-09-30T02:17:09;72109.81;;;-146.70;89.60
7474;BME280;3778;42.572;23.426;2022-09-30T02:19:45;72095.31;;;-146.70;89.23
7474;BME280;3778;42.572;23.426;2022-09-30T02:22:16;72105.66;;;-146.70;88.82
7474;BME280;3778;42.572;23.426;2022-09-30T02:24:48;72095.31;;;-146.70;88.26
7474;BME280;3778;42.572;23.426;2022-09-30T02:27:19;72087.00;;;-146.70;87.76
7474;BME280;3778;42.572;23.426;2022-09-30T02:29:50;72089.09;;;-146.70;87.13
7474;BME280;3778;42.572;23.426;2022-09-30T02:32:21;72091.16;;;-146.70;86.64
7474;BME280;3778;42.572;23.426;2022-09-30T02:34:53;72091.16;;;-146.70;86.62
7474;BME280;3778;42.572;23.426;2022-09-30T02:37:24;72089.09;;;-146.70;86.25
7474;BME280;3778;42.572;23.426;2022-09-30T02:39:57;72093.22;;;-146.70;85.88
7474;BME280;3778;42.572;23.426;2022-09-30T02:42:27;72064.22;;;-146.70;85.34
7474;BME280;3778;42.572;23.426;2022-09-30T02:45:00;72070.44;;;-146.70;84.21
7474;BME280;3778;42.572;23.426;2022-09-30T02:47:31;72095.31;;;-146.70;84.33
7474;BME280;3778;42.572;23.426;2022-09-30T02:50:09;72153.31;;;-146.70;85.04
7474;BME280;3778;42.572;23.426;2022-09-30T02:52:47;72155.41;;;-146.70;86.45
7474;BME280;3778;42.572;23.426;2022-09-30T02:55:18;72157.47;;;-146.70;87.06
7474;BME280;3778;42.572;23.426;2022-09-30T02:57:56;72159.53;;;-146.70;87.54
7474;BME280;3778;42.572;23.426;2022-09-30T03:00:27;72155.41;;;-146.70;88.24
7474;BME280;3778;42.572;23.426;2022-09-30T03:02:56;72138.81;;;-146.70;88.31
7474;BME280;3778;42.572;23.426;2022-09-30T03:05:27;72132.59;;;-146.70;87.84
7474;BME280;3778;42.572;23.426;2022-09-30T03:07:54;72136.75;;;-146.70;87.57
7474;BME280;3778;42.572;23.426;2022-09-30T03:10:22;72140.88;;;-146.70;87.12
7474;BME280;3778;42.572;23.426;2022-09-30T03:15:46;72132.59;;;-146.70;86.30
7474;BME280;3778;42.572;23.426;2022-09-30T03:18:46;72136.75;;;-146.70;86.27
7474;BME280;3778;42.572;23.426;2022-09-30T03:21:29;72157.47;;;-146.70;86.47
7474;BME280;3778;42.572;23.426;2022-09-30T03:24:21;72176.13;;;-146.70;87.17
7474;BME280;3778;42.572;23.426;2022-09-30T03:26:59;72184.41;;;-146.70;87.47
7474;BME280;3778;42.572;23.426;2022-09-30T03:29:40;72186.47;;;-146.70;87.57
7474;BME280;3778;42.572;23.426;2022-09-30T03:32:19;72192.69;;;-146.70;87.26
7474;BME280;3778;42.572;23.426;2022-09-30T03:34:59;72194.78;;;-146.70;87.10
7474;BME280;3778;42.572;23.426;2022-09-30T03:37:33;72196.84;;;-146.70;87.40
7474;BME280;3778;42.572;23.426;2022-09-30T03:40:13;72186.47;;;-146.70;87.46
7474;BME280;3778;42.572;23.426;2022-09-30T03:42:45;72188.56;;;-146.70;87.32
7474;BME280;3778;42.572;23.426;2022-09-30T03:45:19;72184.41;;;-146.70;87.37
7474;BME280;3778;42.572;23.426;2022-09-30T03:47:52;72198.91;;;-146.70;87.33
7474;BME280;3778;42.572;23.426;2022-09-30T03:50:21;72198.91;;;-146.70;87.46
7474;BME280;3778;42.572;23.426;2022-09-30T03:52:50;72207.22;;;-146.70;87.65
7474;BME280;3778;42.572;23.426;2022-09-30T03:55:17;72211.34;;;-146.70;87.80
7474;BME280;3778;42.572;23.426;2022-09-30T03:57:46;72221.72;;;-146.70;87.88
7474;BME280;3778;42.572;23.426;2022-09-30T04:00:14;72234.16;;;-146.70;88.04
7474;BME280;3778;42.572;23.426;2022-09-30T04:02:41;72225.84;;;-146.70;88.09
7474;BME280;3778;42.572;23.426;2022-09-30T04:05:07;72244.50;;;-146.70;87.91
7474;BME280;3778;42.572;23.426;2022-09-30T04:07:35;72254.88;;;-146.70;87.69
7474;BME280;3778;42.572;23.426;2022-09-30T04:10:03;72250.72;;;-146.70;87.99
7474;BME280;3778;42.572;23.426;2022-09-30T04:12:31;72265.22;;;-146.70;88.23
7474;BME280;3778;42.572;23.426;2022-09-30T04:14:58;72294.25;;;-146.70;88.03
7474;BME280;3778;42.572;23.426;2022-09-30T04:17:24;72294.25;;;-146.70;88.44
7474;BME280;3778;42.572;23.426;2022-09-30T04:19:51;72277.66;;;-146.70;88.88
7474;BME280;3778;42.572;23.426;2022-09-30T04:22:18;72273.53;;;-146.70;89.05
7474;BME280;3778;42.572;23.426;2022-09-30T04:24:44;72275.59;;;-146.70;89.15
7474;BME280;3778;42.572;23.426;2022-09-30T04:27:13;72271.44;;;-146.70;89.33
7474;BME280;3778;42.572;23.426;2022-09-30T04:29:39;72283.88;;;-146.70;89.28
7474;BME280;3778;42.572;23.426;2022-09-30T04:32:06;72273.53;;;-146.70;89.47
7474;BME280;3778;42.572;23.426;2022-09-30T04:34:33;72271.44;;;-146.70;89.65
7474;BME280;3778;42.572;23.426;2022-09-30T04:37:00;72281.81;;;-146.70;89.69
7474;BME280;3778;42.572;23.426;2022-09-30T04:39:26;72265.22;;;-146.70;89.75
7474;BME280;3778;42.572;23.426;2022-09-30T04:41:53;72259.03;;;-146.70;89.77
7474;BME280;3778;42.572;23.426;2022-09-30T04:44:21;72259.03;;;-146.70;89.66
7474;BME280;3778;42.572;23.426;2022-09-30T04:46:48;72267.31;;;-146.70;89.50
7474;BME280;3778;42.572;23.426;2022-09-30T04:49:15;72261.09;;;-146.70;89.50
7474;BME280;3778;42.572;23.426;2022-09-30T04:51:42;72263.16;;;-146.70;89.31
7474;BME280;3778;42.572;23.426;2022-09-30T04:54:11;72256.94;;;-146.70;89.23
7474;BME280;3778;42.572;23.426;2022-09-30T04:56:37;72256.94;;;-146.70;88.94
7474;BME280;3778;42.572;23.426;2022-09-30T04:59:04;72250.72;;;-146.70;88.71
7474;BME280;3778;42.572;23.426;2022-09-30T05:01:33;72254.88;;;-146.70;88.17
7474;BME280;3778;42.572;23.426;2022-09-30T05:04:01;72246.59;;;-146.70;88.05
7474;BME280;3778;42.572;23.426;2022-09-30T05:06:27;72250.72;;;-146.70;88.06
7474;BME280;3778;42.572;23.426;2022-09-30T05:08:54;72256.94;;;-146.70;87.99
7474;BME280;3778;42.572;23.426;2022-09-30T05:11:21;72246.59;;;-146.70;87.86
7474;BME280;3778;42.572;23.426;2022-09-30T05:13:48;72234.16;;;-146.70;87.39
7474;BME280;3778;42.572;23.426;2022-09-30T05:16:17;72254.88;;;-146.70;87.22
7474;BME280;3778;42.572;23.426;2022-09-30T05:18:45;72248.66;;;-146.70;87.53
7474;BME280;3778;42.572;23.426;2022-09-30T05:21:13;72230.00;;;-146.70;87.45
7474;BME280;3778;42.572;23.426;2022-09-30T05:23:40;72232.06;;;-146.70;87.51
7474;BME280;3778;42.572;23.426;2022-09-30T05:26:07;72227.94;;;-146.70;87.36
7474;BME280;3778;42.572;23.426;2022-09-30T05:28:34;72223.78;;;-146.70;87.39
7474;BME280;3778;42.572;23.426;2022-09-30T05:31:02;72238.28;;;-146.70;87.27
7474;BME280;3778;42.572;23.426;2022-09-30T05:33:31;72227.94;;;-146.70;87.49
7474;BME280;3778;42.572;23.426;2022-09-30T05:36:00;72219.63;;;-146.70;87.49
7474;BME280;3778;42.572;23.426;2022-09-30T05:38:28;72223.78;;;-146.70;87.38
7474;BME280;3778;42.572;23.426;2022-09-30T05:40:55;72213.44;;;-146.70;87.31
7474;BME280;3778;42.572;23.426;2022-09-30T05:43:22;72217.56;;;-146.70;87.02
7474;BME280;3778;42.572;23.426;2022-09-30T05:45:53;72223.78;;;-146.70;87.21
7474;BME280;3778;42.572;23.426;2022-09-30T05:48:20;72209.28;;;-146.70;87.49
7474;BME280;3778;42.572;23.426;2022-09-30T05:50:47;72205.13;;;-146.70;87.20
7474;BME280;3778;42.572;23.426;2022-09-30T05:53:16;72188.56;;;-146.70;86.97
7474;BME280;3778;42.572;23.426;2022-09-30T05:55:47;72167.84;;;-146.70;85.49
7474;BME280;3778;42.572;23.426;2022-09-30T05:58:15;72142.97;;;-146.70;84.89
7474;BME280;3778;42.572;23.426;2022-09-30T06:00:44;72124.31;;;-146.70;83.95
7474;BME280;3778;42.572;23.426;2022-09-30T06:03:11;72116.03;;;-146.70;82.98
7474;BME280;3778;42.572;23.426;2022-09-30T06:05:38;72126.38;;;-146.70;83.26
7474;BME280;3778;42.572;23.426;2022-09-30T06:08:05;72107.75;;;-146.70;83.48
7474;BME280;3778;42.572;23.426;2022-09-30T06:10:34;72105.66;;;-146.70;83.37
7474;BME280;3778;42.572;23.426;2022-09-30T06:13:01;72103.59;;;-146.70;83.60
7474;BME280;3778;42.572;23.426;2022-09-30T06:15:28;72084.94;;;-146.70;83.67
7474;BME280;3778;42.572;23.426;2022-09-30T06:17:55;72074.56;;;-146.70;82.05
7474;BME280;3778;42.572;23.426;2022-09-30T06:20:22;72074.56;;;-146.70;82.05
7474;BME280;3778;42.572;23.426;2022-09-30T06:22:49;72055.94;;;-146.70;82.53
7474;BME280;3778;42.572;23.426;2022-09-30T06:25:16;72047.63;;;-146.70;81.17
7474;BME280;3778;42.572;23.426;2022-09-30T06:27:44;72043.50;;;-146.70;81.90
7474;BME280;3778;42.572;23.426;2022-09-30T06:30:12;72037.28;;;-146.70;81.77
7474;BME280;3778;42.572;23.426;2022-09-30T06:32:38;72024.84;;;-146.70;81.53
7474;BME280;3778;42.572;23.426;2022-09-30T06:35:07;72022.78;;;-146.70;80.61
7474;BME280;3778;42.572;23.426;2022-09-30T06:37:34;72006.19;;;-146.70;80.19
7474;BME280;3778;42.572;23.426;2022-09-30T06:40:02;71989.63;;;-146.70;80.64
7474;BME280;3778;42.572;23.426;2022-09-30T06:42:29;71987.53;;;-146.70;81.55
7474;BME280;3778;42.572;23.426;2022-09-30T06:44:57;71973.03;;;-146.70;81.28
7474;BME280;3778;42.572;23.426;2022-09-30T06:47:24;71960.59;;;-146.70;80.76
7474;BME280;3778;42.572;23.426;2022-09-30T06:49:51;71968.88;;;-146.70;78.37
7474;BME280;3778;42.572;23.426;2022-09-30T06:52:22;71954.38;;;-146.70;79.49
7474;BME280;3778;42.572;23.426;2022-09-30T06:54:49;71950.25;;;-146.70;78.52
7474;BME280;3778;42.572;23.426;2022-09-30T06:57:17;71929.53;;;-146.70;78.16
7474;BME280;3778;42.572;23.426;2022-09-30T06:59:47;71950.25;;;-146.70;77.67
7474;BME280;3778;42.572;23.426;2022-09-30T07:02:16;71941.94;;;-146.70;77.13
7474;BME280;3778;42.572;23.426;2022-09-30T07:04:42;71979.25;;;-146.70;77.62
7474;BME280;3778;42.572;23.426;2022-09-30T07:07:09;71977.19;;;-146.70;78.97
7474;BME280;3778;42.572;23.426;2022-09-30T07:09:36;71962.69;;;-146.70;80.03
7474;BME280;3778;42.572;23.426;2022-09-30T07:12:03;71960.59;;;-146.70;79.50
7474;BME280;3778;42.572;23.426;2022-09-30T07:14:30;71979.25;;;-146.70;79.29
7474;BME280;3778;42.572;23.426;2022-09-30T07:16:58;71983.41;;;-146.70;78.34
7474;BME280;3778;42.572;23.426;2022-09-30T07:19:29;71968.88;;;-146.70;77.85
7474;BME280;3778;42.572;23.426;2022-09-30T07:21:56;71968.88;;;-146.70;78.58
7474;BME280;3778;42.572;23.426;2022-09-30T07:24:44;71977.19;;;-146.70;77.82
7474;BME280;3778;42.572;23.426;2022-09-30T07:27:11;71989.63;;;-146.70;78.76
7474;BME280;3778;42.572;23.426;2022-09-30T07:29:38;71987.53;;;-146.70;80.21
7474;BME280;3778;42.572;23.426;2022-09-30T07:32:05;71999.97;;;-146.70;79.27
7474;BME280;3778;42.572;23.426;2022-09-30T07:34:34;72004.13;;;-146.70;79.67
7474;BME280;3778;42.572;23.426;2022-09-30T07:37:01;71997.91;;;-146.70;78.99
7474;BME280;3778;42.572;23.426;2022-09-30T07:39:28;71989.63;;;-146.70;78.41
7474;BME280;3778;42.572;23.426;2022-09-30T07:41:55;71975.09;;;-146.70;78.74
7474;BME280;3778;42.572;23.426;2022-09-30T07:44:22;71985.47;;;-146.70;78.20
7474;BME280;3778;42.572;23.426;2022-09-30T07:46:50;71981.31;;;-146.70;77.68
7474;BME280;3778;42.572;23.426;2022-09-30T07:49:18;71964.75;;;-146.70;76.42
7474;BME280;3778;42.572;23.426;2022-09-30T07:51:51;71960.59;;;-146.70;76.75
7474;BME280;3778;42.572;23.426;2022-09-30T07:54:20;71950.25;;;-146.70;76.42
7474;BME280;3778;42.572;23.426;2022-09-30T07:56:48;71941.94;;;-146.70;75.83
7474;BME280;3778;42.572;23.426;2022-09-30T07:59:16;71929.53;;;-146.70;75.89
7474;BME280;3778;42.572;23.426;2022-09-30T08:01:43;71896.38;;;-146.70;75.54
7474;BME280;3778;42.572;23.426;2022-09-30T08:04:11;71888.06;;;-146.70;74.61
7474;BME280;3778;42.572;23.426;2022-09-30T08:06:41;71873.56;;;-146.70;75.56
7474;BME280;3778;42.572;23.426;2022-09-30T08:09:11;71859.06;;;-146.70;75.00
7474;BME280;3778;42.572;23.426;2022-09-30T08:11:39;71848.69;;;-146.70;75.17
7474;BME280;3778;42.572;23.426;2022-09-30T08:14:10;71832.13;;;-146.70;74.20
7474;BME280;3778;42.572;23.426;2022-09-30T08:16:38;71830.06;;;-146.70;74.16
7474;BME280;3778;42.572;23.426;2022-09-30T08:19:05;71825.91;;;-146.70;73.00
7474;BME280;3778;42.572;23.426;2022-09-30T08:21:32;71817.63;;;-146.70;72.05
7474;BME280;3778;42.572;23.426;2022-09-30T08:23:59;71798.97;;;-146.70;71.77
7474;BME280;3778;42.572;23.426;2022-09-30T08:26:30;71807.25;;;-146.70;71.22
7474;BME280;3778;42.572;23.426;2022-09-30T08:28:56;71801.03;;;-146.70;69.77
7474;BME280;3778;42.572;23.426;2022-09-30T08:31:23;71794.81;;;-146.70;68.95
7474;BME280;3778;42.572;23.426;2022-09-30T08:33:50;71780.31;;;-146.70;69.61
7474;BME280;3778;42.572;23.426;2022-09-30T08:36:20;71753.38;;;-146.70;70.39
7474;BME280;3778;42.572;23.426;2022-09-30T08:38:47;71757.53;;;-146.70;68.00
7474;BME280;3778;42.572;23.426;2022-09-30T08:44:14;71724.38;;;-146.70;68.70
7474;BME280;3778;42.572;23.426;2022-09-30T08:46:50;71730.59;;;-146.70;69.13
7474;BME280;3778;42.572;23.426;2022-09-30T08:49:33;71716.09;;;-146.70;67.38
7474;BME280;3778;42.572;23.426;2022-09-30T08:52:04;71714.00;;;-146.70;66.97
7474;BME280;3778;42.572;23.426;2022-09-30T08:54:40;71714.00;;;-146.70;66.61
7474;BME280;3778;42.572;23.426;2022-09-30T08:57:11;71718.16;;;-146.70;65.05
7474;BME280;3778;42.572;23.426;2022-09-30T08:59:43;71716.09;;;-146.70;66.95
7474;BME280;3778;42.572;23.426;2022-09-30T09:02:17;71699.50;;;-146.70;66.64
7474;BME280;3778;42.572;23.426;2022-09-30T09:04:46;71695.38;;;-146.70;65.12
7474;BME280;3778;42.572;23.426;2022-09-30T09:07:25;71670.50;;;-146.70;66.59
7474;BME280;3778;42.572;23.426;2022-09-30T09:10:04;71676.72;;;-146.70;65.63
7474;BME280;3778;42.572;23.426;2022-09-30T09:12:38;71670.50;;;-146.70;65.47
7474;BME280;3778;42.572;23.426;2022-09-30T09:15:20;71666.34;;;-146.70;64.20
7474;BME280;3778;42.572;23.426;2022-09-30T09:20:48;71633.19;;;-146.70;65.09
7474;BME280;3778;42.572;23.426;2022-09-30T09:23:17;71616.63;;;-146.70;64.63
7474;BME280;3778;42.572;23.426;2022-09-30T09:25:44;71629.06;;;-146.70;64.26
7474;BME280;3778;42.572;23.426;2022-09-30T09:28:24;71595.91;;;-146.70;61.95
7474;BME280;3778;42.572;23.426;2022-09-30T09:30:57;71593.84;;;-146.70;61.84
7474;BME280;3778;42.572;23.426;2022-09-30T09:33:27;71577.25;;;-146.70;61.58
7474;BME280;3778;42.572;23.426;2022-09-30T09:36:02;71558.59;;;-146.70;62.20
7474;BME280;3778;42.572;23.426;2022-09-30T09:38:36;71531.66;;;-146.70;60.27
7474;BME280;3778;42.572;23.426;2022-09-30T09:41:17;71517.16;;;-146.70;58.40
7474;BME280;3778;42.572;23.426;2022-09-30T09:43:56;71504.72;;;-146.70;59.02
7474;BME280;3778;42.572;23.426;2022-09-30T09:46:28;71484.00;;;-146.70;57.55
7474;BME280;3778;42.572;23.426;2022-09-30T09:49:26;71465.38;;;-146.70;57.88
7474;BME280;3778;42.572;23.426;2022-09-30T09:52:04;71465.38;;;-146.70;54.73
7474;BME280;3778;42.572;23.426;2022-09-30T09:54:40;71448.78;;;-146.70;53.52
7474;BME280;3778;42.572;23.426;2022-09-30T09:57:09;71417.72;;;-146.70;53.34
7474;BME280;3778;42.572;23.426;2022-09-30T09:59:36;71405.28;;;-146.70;54.52
7474;BME280;3778;42.572;23.426;2022-09-30T10:02:21;71388.69;;;-146.70;46.79
7474;BME280;3778;42.572;23.426;2022-09-30T10:04:49;71397.00;;;-146.70;51.00
7474;BME280;3778;42.572;23.426;2022-09-30T10:07:25;71382.50;;;-146.70;50.38
7474;BME280;3778;42.572;23.426;2022-09-30T10:10:06;71330.69;;;-146.70;45.21
7474;BME280;3778;42.572;23.426;2022-09-30T10:12:33;71345.19;;;-146.70;43.33
7474;BME280;3778;42.572;23.426;2022-09-30T10:15:04;71330.69;;;-146.70;43.98
7474;BME280;3778;42.572;23.426;2022-09-30T10:17:39;71320.34;;;-146.70;44.82
7474;BME280;3778;42.572;23.426;2022-09-30T10:20:18;71297.53;;;-146.70;44.24
7474;BME280;3778;42.572;23.426;2022-09-30T10:22:46;71289.25;;;-146.70;41.34
7474;BME280;3778;42.572;23.426;2022-09-30T10:25:21;71289.25;;;-146.70;41.22
7474;BME280;3778;42.572;23.426;2022-09-30T10:27:51;71266.47;;;-146.70;41.91
7474;BME280;3778;42.572;23.426;2022-09-30T10:30:41;71247.81;;;-146.70;42.45
7474;BME280;3778;42.572;23.426;2022-09-30T10:33:29;71233.31;;;-146.70;40.73
7474;BME280;3778;42.572;23.426;2022-09-30T10:36:03;71220.88;;;-146.70;44.52
7474;BME280;3778;42.572;23.426;2022-09-30T10:38:31;71214.66;;;-146.70;43.50
7474;BME280;3778;42.572;23.426;2022-09-30T10:41:00;71198.09;;;-146.70;40.17
7474;BME280;3778;42.572;23.426;2022-09-30T10:43:33;71231.25;;;-146.70;39.53
7474;BME280;3778;42.572;23.426;2022-09-30T10:46:02;71247.81;;;-146.70;39.75
7474;BME280;3778;42.572;23.426;2022-09-30T10:48:34;71214.66;;;-146.70;42.40
7474;BME280;3778;42.572;23.426;2022-09-30T10:51:01;71193.94;;;-146.70;41.21
7474;BME280;3778;42.572;23.426;2022-09-30T10:53:31;71198.09;;;-146.70;40.25
7474;BME280;3778;42.572;23.426;2022-09-30T10:55:59;71216.75;;;-146.70;41.10
7474;BME280;3778;42.572;23.426;2022-09-30T10:58:45;71210.53;;;-146.70;39.48
7474;BME280;3778;42.572;23.426;2022-09-30T11:01:20;71179.44;;;-146.70;39.28
7474;BME280;3778;42.572;23.426;2022-09-30T11:04:02;71175.31;;;-146.70;37.16
7474;BME280;3778;42.572;23.426;2022-09-30T11:06:31;71202.22;;;-146.70;37.47
7474;BME280;3778;42.572;23.426;2022-09-30T11:09:03;71177.38;;;-146.70;37.11
7474;BME280;3778;42.572;23.426;2022-09-30T11:11:36;71160.78;;;-146.70;38.11
7474;BME280;3778;42.572;23.426;2022-09-30T11:14:17;71160.78;;;-146.70;38.56
7474;BME280;3778;42.572;23.426;2022-09-30T11:16:54;71138.00;;;-146.70;38.22
7474;BME280;3778;42.572;23.426;2022-09-30T11:19:29;71123.50;;;-146.70;38.72
7474;BME280;3778;42.572;23.426;2022-09-30T11:22:03;71100.72;;;-146.70;37.92
7474;BME280;3778;42.572;23.426;2022-09-30T11:24:38;71102.78;;;-146.70;38.97
7474;BME280;3778;42.572;23.426;2022-09-30T11:27:13;71071.72;;;-146.70;39.16
7474;BME280;3778;42.572;23.426;2022-09-30T11:29:52;71046.84;;;-146.70;36.96
7474;BME280;3778;42.572;23.426;2022-09-30T11:32:36;71102.78;;;-146.70;36.54
7474;BME280;3778;42.572;23.426;2022-09-30T11:35:23;71088.28;;;-146.70;38.40
7474;BME280;3778;42.572;23.426;2022-09-30T11:38:08;71055.13;;;-146.70;36.80
7474;BME280;3778;42.572;23.426;2022-09-30T11:40:37;71021.97;;;-146.70;36.17
7474;BME280;3778;42.572;23.426;2022-09-30T11:43:20;71007.47;;;-146.70;35.73
7474;BME280;3778;42.572;23.426;2022-09-30T11:46:14;71057.22;;;-146.70;36.09
7474;BME280;3778;42.572;23.426;2022-09-30T11:48:54;71059.28;;;-146.70;35.98
7474;BME280;3778;42.572;23.426;2022-09-30T11:51:31;71088.28;;;-146.70;35.39
7474;BME280;3778;42.572;23.426;2022-09-30T11:54:11;71102.78;;;-146.70;38.35
7474;BME280;3778;42.572;23.426;2022-09-30T11:56:48;71082.06;;;-146.70;34.76
7474;BME280;3778;42.572;23.426;2022-09-30T11:59:21;71096.56;;;-146.70;35.37
7474;BME280;3778;42.572;23.426;2022-09-30T12:01:53;71096.56;;;-146.70;35.50
7474;BME280;3778;42.572;23.426;2022-09-30T12:04:24;71119.34;;;-146.70;36.72
7474;BME280;3778;42.572;23.426;2022-09-30T12:06:57;71140.06;;;-146.70;35.76
7474;BME280;3778;42.572;23.426;2022-09-30T12:09:28;71127.66;;;-146.70;35.87
7474;BME280;3778;42.572;23.426;2022-09-30T12:12:00;71106.94;;;-146.70;36.46
7474;BME280;3778;42.572;23.426;2022-09-30T12:14:33;71082.06;;;-146.70;36.22
7474;BME280;3778;42.572;23.426;2022-09-30T12:17:06;71067.56;;;-146.70;35.97
7474;BME280;3778;42.572;23.426;2022-09-30T12:19:40;71051.00;;;-146.70;36.11
7474;BME280;3778;42.572;23.426;2022-09-30T12:22:13;71034.41;;;-146.70;35.84
7474;BME280;3778;42.572;23.426;2022-09-30T12:24:43;71011.63;;;-146.70;35.58
7474;BME280;3778;42.572;23.426;2022-09-30T12:27:15;71015.78;;;-146.70;34.62
7474;BME280;3778;42.572;23.426;2022-09-30T12:29:51;71017.84;;;-146.70;34.76
7474;BME280;3778;42.572;23.426;2022-09-30T12:33:01;70970.19;;;-146.70;34.83
7474;BME280;3778;42.572;23.426;2022-09-30T12:38:47;70963.97;;;-146.70;33.91
7474;BME280;3778;42.572;23.426;2022-09-30T12:41:34;70947.41;;;-146.70;34.85
7474;BME280;3778;42.572;23.426;2022-09-30T12:47:35;70945.34;;;-146.70;34.52
7474;BME280;3778;42.572;23.426;2022-09-30T12:50:12;70995.06;;;-146.70;35.24
7474;BME280;3778;42.572;23.426;2022-09-30T12:52:40;70984.69;;;-146.70;34.45
7474;BME280;3778;42.572;23.426;2022-09-30T12:55:19;70961.91;;;-146.70;35.04
7474;BME280;3778;42.572;23.426;2022-09-30T12:57:48;70972.25;;;-146.70;34.25
7474;BME280;3778;42.572;23.426;2022-09-30T13:00:17;70910.13;;;-146.70;33.99
7474;BME280;3778;42.572;23.426;2022-09-30T13:02:46;70872.81;;;-146.70;33.02
7474;BME280;3778;42.572;23.426;2022-09-30T13:11:36;70918.41;;;-146.70;33.39
7474;BME280;3778;42.572;23.426;2022-09-30T13:14:31;70903.91;;;-146.70;32.98
7474;BME280;3778;42.572;23.426;2022-09-30T13:17:24;70899.75;;;-146.70;32.81
7474;BME280;3778;42.572;23.426;2022-09-30T13:19:52;70893.53;;;-146.70;33.38
7474;BME280;3778;42.572;23.426;2022-09-30T13:22:53;70862.47;;;-146.70;32.52
7474;BME280;3778;42.572;23.426;2022-09-30T13:25:20;70883.19;;;-146.70;32.83
7474;BME280;3778;42.572;23.426;2022-09-30T13:27:50;70926.69;;;-146.70;32.60
7474;BME280;3778;42.572;23.426;2022-09-30T13:30:46;70984.69;;;-146.70;32.71
7474;BME280;3778;42.572;23.426;2022-09-30T13:33:28;70986.75;;;-146.70;31.91
7474;BME280;3778;42.572;23.426;2022-09-30T13:35:58;71011.63;;;-146.70;32.03
7474;BME280;3778;42.572;23.426;2022-09-30T13:38:35;70986.75;;;-146.70;33.27